createdAt,value
2019-04-03T00:01:20.791Z,27.00
2019-04-03T00:04:04.693Z,25.20
2019-04-03T00:06:47.953Z,24.43
2019-04-03T00:09:38.329Z,27.90
2019-04-03T00:12:23.477Z,25.95
2019-04-03T00:15:06.362Z,29.20
2019-04-03T00:17:55.873Z,25.37
2019-04-03T00:20:32.315Z,25.75
2019-04-03T00:23:22.913Z,23.55
2019-04-03T00:26:06.580Z,27.75
2019-04-03T00:29:02.746Z,22.62
2019-04-03T00:31:53.679Z,23.70
2019-04-03T00:34:31.294Z,30.32
2019-04-03T00:37:21.515Z,28.00
2019-04-03T00:40:05.666Z,26.85
2019-04-03T00:43:01.850Z,25.68
2019-04-03T00:45:58.698Z,24.47
2019-04-03T00:48:48.099Z,35.78
2019-04-03T00:51:24.021Z,28.95
2019-04-03T00:54:13.665Z,28.15
2019-04-03T00:56:56.510Z,26.77
2019-04-03T00:59:51.978Z,28.02
2019-04-03T01:02:47.934Z,29.42
2019-04-03T01:05:43.227Z,33.78
2019-04-03T01:08:39.749Z,35.25
2019-04-03T01:11:30.148Z,28.70
2019-04-03T01:14:05.998Z,28.15
2019-04-03T01:16:54.918Z,30.95
2019-04-03T01:19:30.690Z,31.40
2019-04-03T01:24:54.728Z,30.40
2019-04-03T01:27:38.035Z,30.40
2019-04-03T01:30:21.464Z,36.53
2019-04-03T01:33:03.961Z,38.08
2019-04-03T01:35:47.454Z,37.28
2019-04-03T01:38:36.722Z,39.10
2019-04-03T01:41:21.244Z,34.38
2019-04-03T01:44:04.390Z,36.97
2019-04-03T01:46:46.821Z,33.98
2019-04-03T01:49:28.988Z,34.27
2019-04-03T01:52:11.838Z,36.68
2019-04-03T01:54:53.622Z,37.28
2019-04-03T01:57:37.170Z,36.58
2019-04-03T02:00:26.401Z,39.03
2019-04-03T02:03:15.550Z,42.98
2019-04-03T02:06:13.216Z,38.48
2019-04-03T02:09:08.263Z,39.27
2019-04-03T02:11:58.171Z,44.10
2019-04-03T02:14:34.647Z,39.60
2019-04-03T02:17:24.186Z,41.98
2019-04-03T02:20:07.102Z,42.23
2019-04-03T02:23:03.690Z,42.55
2019-04-03T02:26:02.014Z,43.60
2019-04-03T02:28:56.654Z,35.90
2019-04-03T02:31:45.326Z,36.85
2019-04-03T02:34:22.380Z,34.63
2019-04-03T02:37:12.177Z,38.55
2019-04-03T02:39:48.011Z,35.25
2019-04-03T02:42:40.578Z,38.80
2019-04-03T02:45:15.396Z,36.25
2019-04-03T02:48:05.610Z,36.55
2019-04-03T02:50:41.250Z,35.75
2019-04-03T02:53:31.136Z,34.33
2019-04-03T02:56:13.976Z,36.05
2019-04-03T02:59:11.014Z,36.55
2019-04-03T03:02:11.462Z,32.90
2019-04-03T03:05:04.663Z,35.68
2019-04-03T03:08:00.858Z,38.55
2019-04-03T03:10:56.184Z,35.43
2019-04-03T03:13:45.487Z,39.75
2019-04-03T03:16:28.886Z,33.58
2019-04-03T03:19:19.596Z,40.03
2019-04-03T03:21:57.119Z,39.38
2019-04-03T03:24:47.443Z,36.65
2019-04-03T03:27:30.578Z,38.75
2019-04-03T03:30:38.833Z,43.20
2019-04-03T03:33:33.214Z,41.53
2019-04-03T03:36:24.953Z,44.95
2019-04-03T03:39:12.177Z,47.33
2019-04-03T03:41:48.478Z,46.35
2019-04-03T03:44:38.244Z,43.70
2019-04-03T03:47:14.651Z,44.00
2019-04-03T03:50:03.182Z,43.42
2019-04-03T03:52:40.249Z,45.50
2019-04-03T03:55:31.128Z,55.63
2019-04-03T03:58:11.025Z,52.55
2019-04-03T04:01:00.501Z,50.80
2019-04-03T04:03:45.056Z,47.03
2019-04-03T04:06:35.883Z,49.53
2019-04-03T04:09:15.698Z,45.25
2019-04-03T04:12:07.323Z,46.53
2019-04-03T04:14:44.101Z,46.28
2019-04-03T04:17:33.618Z,44.23
2019-04-03T04:20:11.042Z,41.60
2019-04-03T04:23:01.882Z,49.10
2019-04-03T04:25:37.792Z,46.90
2019-04-03T04:28:26.711Z,48.60
2019-04-03T04:31:02.463Z,51.60
2019-04-03T04:33:51.805Z,50.20
2019-04-03T04:36:28.243Z,51.75
2019-04-03T04:39:19.402Z,50.20
2019-04-03T04:41:55.859Z,53.25
2019-04-03T04:44:46.019Z,54.65
2019-04-03T04:47:29.242Z,58.70
2019-04-03T04:50:18.115Z,56.58
2019-04-03T04:53:00.998Z,55.75
2019-04-03T04:55:57.202Z,60.30
2019-04-03T04:58:53.125Z,56.88
2019-04-03T05:01:49.595Z,57.25
2019-04-03T05:04:45.024Z,52.53
2019-04-03T05:07:33.562Z,56.73
2019-04-03T05:10:17.895Z,51.25
2019-04-03T05:13:16.004Z,51.53
2019-04-03T05:16:11.601Z,54.95
2019-04-03T05:19:09.492Z,51.10
2019-04-03T05:21:37.806Z,52.25
2019-04-03T05:24:28.902Z,52.83
2019-04-03T05:27:12.476Z,52.43
2019-04-03T05:30:01.245Z,54.50
2019-04-03T05:32:37.496Z,52.75
2019-04-03T05:35:26.215Z,57.40
2019-04-03T05:38:02.222Z,53.95
2019-04-03T05:40:51.640Z,53.87
2019-04-03T05:43:34.967Z,53.38
2019-04-03T05:46:31.270Z,55.83
2019-04-03T05:49:27.359Z,53.73
2019-04-03T05:52:16.781Z,53.00
2019-04-03T05:57:54.708Z,56.13
2019-04-03T06:00:44.269Z,55.90
2019-04-03T06:03:40.466Z,56.90
2019-04-03T06:06:27.486Z,55.17
2019-04-03T06:09:17.498Z,61.05
2019-04-03T06:11:53.173Z,60.43
2019-04-03T06:14:42.512Z,58.58
2019-04-03T06:17:19.102Z,55.52
2019-04-03T06:20:11.194Z,51.83
2019-04-03T06:22:54.850Z,54.35
2019-04-03T06:25:51.239Z,53.87
2019-04-03T06:28:42.589Z,53.95
2019-04-03T06:31:26.438Z,57.75
2019-04-03T06:34:09.171Z,57.55
2019-04-03T06:36:58.604Z,57.08
2019-04-03T06:39:41.659Z,53.30
2019-04-03T06:42:31.042Z,59.98
2019-04-03T06:45:15.584Z,53.78
2019-04-03T06:47:58.608Z,52.62
2019-04-03T06:50:41.730Z,53.78
2019-04-03T06:53:30.273Z,56.48
2019-04-03T06:56:08.680Z,54.18
2019-04-03T06:58:58.561Z,57.00
2019-04-03T07:01:40.713Z,59.03
2019-04-03T07:04:22.711Z,58.78
2019-04-03T07:07:05.909Z,55.35
2019-04-03T07:09:50.637Z,59.55
2019-04-03T07:12:32.596Z,53.73
2019-04-03T07:15:15.686Z,54.85
2019-04-03T07:18:01.657Z,54.93
2019-04-03T07:20:44.209Z,53.15
2019-04-03T07:23:29.887Z,57.50
2019-04-03T07:26:12.838Z,53.83
2019-04-03T07:29:03.431Z,52.60
2019-04-03T07:31:39.771Z,54.88
2019-04-03T07:34:29.725Z,54.93
2019-04-03T07:40:06.875Z,48.87
2019-04-03T07:42:56.281Z,51.30
2019-04-03T07:45:39.234Z,53.48
2019-04-03T07:48:37.143Z,50.10
2019-04-03T07:51:32.430Z,49.42
2019-04-03T07:54:16.355Z,47.20
2019-04-03T07:57:09.693Z,49.63
2019-04-03T07:59:50.783Z,46.80
2019-04-03T08:02:34.550Z,46.48
2019-04-03T08:05:17.358Z,47.08
2019-04-03T08:08:06.966Z,49.98
2019-04-03T08:10:55.393Z,47.45
2019-04-03T08:13:31.630Z,41.75
2019-04-03T08:16:22.509Z,37.95
2019-04-03T08:19:08.017Z,39.20
2019-04-03T08:21:57.029Z,36.08
2019-04-03T08:24:32.985Z,32.20
2019-04-03T08:27:23.464Z,33.98
2019-04-03T08:29:58.993Z,32.95
2019-04-03T08:32:48.890Z,35.30
2019-04-03T08:35:25.187Z,35.28
2019-04-03T08:38:15.332Z,39.03
2019-04-03T08:40:52.446Z,33.63
2019-04-03T08:43:41.531Z,36.90
2019-04-03T08:46:23.872Z,33.63
2019-04-03T08:49:12.216Z,35.03
2019-04-03T08:51:48.034Z,34.13
2019-04-03T08:54:36.744Z,34.30
2019-04-03T08:57:20.551Z,35.98
2019-04-03T09:00:04.180Z,35.58
2019-04-03T09:02:46.520Z,29.90
2019-04-03T09:05:28.762Z,30.85
2019-04-03T09:08:26.496Z,34.13
2019-04-03T09:11:22.278Z,29.55
2019-04-03T09:14:19.455Z,33.15
2019-04-03T09:17:10.752Z,31.30
2019-04-03T09:19:56.233Z,29.27
2019-04-03T09:22:44.674Z,29.52
2019-04-03T09:25:24.286Z,31.82
2019-04-03T09:28:12.069Z,33.55
2019-04-03T09:30:55.494Z,31.48
2019-04-03T09:33:51.860Z,35.63
2019-04-03T09:36:41.411Z,36.08
2019-04-03T09:39:19.448Z,35.58
2019-04-03T09:42:08.278Z,32.33
2019-04-03T09:47:34.651Z,30.92
2019-04-03T09:50:14.991Z,32.98
2019-04-03T09:53:04.567Z,30.52
2019-04-03T09:55:40.810Z,33.88
2019-04-03T09:58:30.910Z,32.25
2019-04-03T10:01:17.707Z,35.03
2019-04-03T10:03:58.077Z,31.00
2019-04-03T10:06:40.565Z,31.50
2019-04-03T10:09:23.100Z,30.02
2019-04-03T10:12:06.515Z,33.00
2019-04-03T10:14:49.383Z,36.15
2019-04-03T10:17:32.281Z,35.95
2019-04-03T10:20:17.299Z,33.45
2019-04-03T10:23:01.008Z,31.62
2019-04-03T10:25:43.064Z,32.83
2019-04-03T10:28:24.888Z,33.88
2019-04-03T10:31:14.429Z,36.58
2019-04-03T10:33:58.062Z,30.77
2019-04-03T10:36:42.061Z,31.97
2019-04-03T10:39:32.783Z,31.73
2019-04-03T10:42:15.233Z,27.30
2019-04-03T10:44:59.149Z,26.12
2019-04-03T10:47:48.540Z,31.05
2019-04-03T10:50:31.784Z,29.72
2019-04-03T10:53:27.878Z,29.75
2019-04-03T10:56:23.733Z,26.17
2019-04-03T10:59:19.942Z,27.90
2019-04-03T11:02:15.406Z,26.35
2019-04-03T11:05:05.070Z,26.95
2019-04-03T11:07:41.638Z,25.45
2019-04-03T11:10:37.799Z,26.05
2019-04-03T11:13:25.794Z,23.83
2019-04-03T11:16:08.208Z,25.97
2019-04-03T11:18:58.685Z,23.77
2019-04-03T11:21:35.513Z,24.23
2019-04-03T11:24:12.347Z,22.40
2019-04-03T11:27:01.736Z,28.25
2019-04-03T11:29:37.653Z,26.07
2019-04-03T11:32:27.290Z,22.32
2019-04-03T11:35:02.953Z,22.65
2019-04-03T11:37:52.836Z,21.02
2019-04-03T11:40:29.202Z,20.27
2019-04-03T11:43:19.610Z,16.77
2019-04-03T11:45:56.017Z,20.00
2019-04-03T11:48:47.582Z,19.20
2019-04-03T11:51:30.160Z,19.55
2019-04-03T11:54:19.562Z,17.25
2019-04-03T11:56:57.119Z,18.00
2019-04-03T11:59:47.506Z,17.85
2019-04-03T12:02:31.148Z,16.02
2019-04-03T12:05:22.747Z,17.00
2019-04-03T12:08:13.082Z,19.17
2019-04-03T12:11:02.285Z,17.73
2019-04-03T12:13:59.400Z,17.00
2019-04-03T12:16:49.757Z,19.12
2019-04-03T12:19:33.007Z,18.45
2019-04-03T12:22:23.137Z,15.05
2019-04-03T12:25:06.039Z,16.48
2019-04-03T12:27:48.874Z,15.80
2019-04-03T12:30:38.445Z,18.05
2019-04-03T12:33:21.724Z,19.95
2019-04-03T12:36:06.666Z,16.10
2019-04-03T12:38:49.035Z,18.73
2019-04-03T12:41:38.500Z,13.28
2019-04-03T12:44:21.955Z,14.45
2019-04-03T12:47:12.139Z,17.73
2019-04-03T12:49:51.959Z,17.67
2019-04-03T12:52:35.738Z,15.48
2019-04-03T12:55:18.601Z,18.80
2019-04-03T12:58:09.022Z,18.60
2019-04-03T13:00:52.679Z,14.43
2019-04-03T13:03:37.085Z,22.73
2019-04-03T13:06:20.056Z,14.63
2019-04-03T13:09:02.837Z,16.27
2019-04-03T13:11:49.825Z,15.80
2019-04-03T13:14:33.497Z,14.87
2019-04-03T13:17:16.801Z,13.28
2019-04-03T13:20:03.229Z,17.67
2019-04-03T13:22:43.743Z,14.80
2019-04-03T13:25:26.031Z,12.35
2019-04-03T13:28:08.835Z,13.53
2019-04-03T13:30:51.335Z,14.68
2019-04-03T13:33:33.774Z,12.63
2019-04-03T13:36:18.747Z,13.60
2019-04-03T13:39:01.591Z,11.83
2019-04-03T13:41:44.970Z,11.30
2019-04-03T13:44:28.126Z,14.73
2019-04-03T13:47:18.382Z,11.15
2019-04-03T13:49:54.209Z,8.35
2019-04-03T13:52:47.967Z,8.60
2019-04-03T13:55:20.944Z,7.80
2019-04-03T13:58:11.265Z,12.50
2019-04-03T14:00:59.400Z,8.83
2019-04-03T14:03:39.002Z,9.20
2019-04-03T14:06:22.088Z,11.60
2019-04-03T14:09:12.260Z,15.58
2019-04-03T14:11:55.855Z,10.78
2019-04-03T14:14:39.588Z,13.20
2019-04-03T14:17:22.289Z,10.78
2019-04-03T14:20:12.295Z,8.38
2019-04-03T14:22:55.476Z,9.75
2019-04-03T14:25:38.690Z,10.23
2019-04-03T14:28:23.417Z,8.38
2019-04-03T14:31:14.933Z,11.93
2019-04-03T14:33:58.454Z,9.70
2019-04-03T14:36:50.195Z,9.40
2019-04-03T14:39:32.067Z,8.88
2019-04-03T14:42:14.282Z,10.63
2019-04-03T14:44:57.052Z,9.10
2019-04-03T14:47:47.545Z,9.95
2019-04-03T14:50:23.655Z,8.58
2019-04-03T14:53:12.989Z,9.58
2019-04-03T14:56:09.616Z,8.55
2019-04-03T14:59:05.953Z,7.67
2019-04-03T15:02:01.471Z,5.55
2019-04-03T15:04:57.708Z,8.08
2019-04-03T15:07:53.927Z,7.58
2019-04-03T15:10:43.978Z,5.42
2019-04-03T15:13:21.050Z,8.30
2019-04-03T15:16:14.431Z,7.35
2019-04-03T15:18:51.307Z,6.70
2019-04-03T15:21:43.205Z,7.67
2019-04-03T15:24:20.918Z,6.65
2019-04-03T15:27:11.612Z,8.70
2019-04-03T15:29:57.799Z,9.85
2019-04-03T15:32:54.301Z,9.50
2019-04-03T15:35:51.391Z,6.40
2019-04-03T15:38:51.478Z,8.35
2019-04-03T15:41:41.450Z,7.72
2019-04-03T15:44:27.475Z,8.18
2019-04-03T15:47:33.196Z,7.65
2019-04-03T15:53:20.706Z,10.98
2019-04-03T15:56:23.326Z,7.85
2019-04-03T15:59:20.853Z,13.48
2019-04-03T16:02:19.215Z,9.00
2019-04-03T16:05:09.636Z,14.18
2019-04-03T16:07:53.151Z,23.40
2019-04-03T16:10:49.422Z,20.82
2019-04-03T16:13:48.166Z,16.70
2019-04-03T16:16:46.098Z,19.62
2019-04-03T16:19:36.776Z,18.12
2019-04-03T16:22:13.673Z,18.75
2019-04-03T16:25:03.916Z,21.07
2019-04-03T16:27:42.075Z,18.80
2019-04-03T16:30:31.867Z,17.70
2019-04-03T16:33:22.474Z,20.05
2019-04-03T16:36:07.276Z,20.88
2019-04-03T16:39:03.813Z,22.67
2019-04-03T16:41:53.562Z,20.82
2019-04-03T16:44:32.092Z,20.68
2019-04-03T16:47:23.232Z,20.25
2019-04-03T16:50:04.698Z,15.38
2019-04-03T16:52:53.647Z,14.73
2019-04-03T16:55:39.993Z,14.85
2019-04-03T16:58:46.358Z,14.10
2019-04-03T17:01:37.409Z,14.83
2019-04-03T17:04:25.577Z,15.28
2019-04-03T17:07:08.837Z,16.35
2019-04-03T17:09:53.432Z,9.80
2019-04-03T17:13:00.209Z,10.83
2019-04-03T17:15:56.102Z,12.95
2019-04-03T17:18:48.170Z,11.97
2019-04-03T17:21:36.354Z,12.60
2019-04-03T17:24:40.238Z,11.28
2019-04-03T17:27:29.694Z,12.15
2019-04-03T17:30:27.474Z,40.20
2019-04-03T17:33:15.850Z,21.27
2019-04-03T17:35:59.190Z,9.83
2019-04-03T17:38:42.761Z,11.75
2019-04-03T17:41:33.170Z,10.08
2019-04-03T17:44:12.047Z,10.55
2019-04-03T17:47:01.707Z,13.13
2019-04-03T17:49:37.853Z,12.45
2019-04-03T17:52:27.426Z,11.48
2019-04-03T17:55:11.115Z,11.57
2019-04-03T17:57:53.803Z,10.35
2019-04-03T18:00:36.273Z,13.00
2019-04-03T18:03:19.609Z,10.15
2019-04-03T18:06:02.918Z,12.10
2019-04-03T18:08:52.834Z,16.25
2019-04-03T18:11:29.482Z,10.30
2019-04-03T18:14:18.501Z,12.55
2019-04-03T18:17:01.987Z,14.10
2019-04-03T18:19:58.047Z,12.07
2019-04-03T18:22:50.405Z,11.93
2019-04-03T18:25:26.867Z,12.40
2019-04-03T18:28:15.744Z,12.58
2019-04-03T18:33:39.575Z,13.80
2019-04-03T18:36:16.160Z,12.37
2019-04-03T18:39:06.174Z,13.05
2019-04-03T18:41:49.971Z,14.45
2019-04-03T18:44:39.895Z,14.13
2019-04-03T18:47:23.626Z,12.98
2019-04-03T18:50:19.160Z,14.23
2019-04-03T18:53:15.895Z,15.13
2019-04-03T18:55:58.407Z,11.80
2019-04-03T18:58:48.983Z,18.85
2019-04-03T19:01:32.564Z,14.13
2019-04-03T19:04:16.532Z,13.38
2019-04-03T19:06:59.485Z,13.18
2019-04-03T19:09:41.727Z,159.43
2019-04-03T19:12:34.956Z,17.23
2019-04-03T19:15:17.648Z,12.30
2019-04-03T19:18:19.438Z,12.93
2019-04-03T19:21:02.988Z,13.88
2019-04-03T19:23:49.184Z,11.63
2019-04-03T19:26:31.732Z,12.88
2019-04-03T19:29:08.544Z,13.75
2019-04-03T19:31:58.140Z,12.85
2019-04-03T19:34:34.679Z,13.48
2019-04-03T19:37:25.509Z,14.47
2019-04-03T19:40:02.336Z,12.75
2019-04-03T19:42:52.373Z,15.23
2019-04-03T19:45:31.813Z,12.15
2019-04-03T19:48:23.849Z,13.25
2019-04-03T19:51:02.717Z,15.45
2019-04-03T19:53:59.186Z,14.63
2019-04-03T19:56:29.603Z,14.83
2019-04-03T19:59:18.318Z,16.85
2019-04-03T20:02:01.869Z,15.60
2019-04-03T20:04:58.584Z,17.15
2019-04-03T20:07:54.581Z,15.10
2019-04-03T20:10:51.197Z,14.70
2019-04-03T20:13:47.434Z,16.27
2019-04-03T20:16:44.155Z,15.38
2019-04-03T20:19:41.178Z,17.00
2019-04-03T20:22:30.830Z,20.77
2019-04-03T20:25:15.098Z,16.52
2019-04-03T20:28:11.838Z,19.02
2019-04-03T20:31:07.933Z,17.77
2019-04-03T20:34:03.694Z,14.73
2019-04-03T20:36:54.980Z,16.73
2019-04-03T20:39:38.076Z,18.30
2019-04-03T20:42:29.032Z,51.90
2019-04-03T20:45:05.293Z,16.45
2019-04-03T20:47:57.211Z,15.90
2019-04-03T20:50:32.570Z,14.63
2019-04-03T20:53:21.666Z,17.12
2019-04-03T20:56:05.046Z,14.90
2019-04-03T20:58:55.662Z,17.80
2019-04-03T21:01:35.283Z,15.80
2019-04-03T21:04:18.761Z,17.02
2019-04-03T21:07:02.266Z,14.65
2019-04-03T21:09:46.260Z,15.03
2019-04-03T21:12:30.015Z,16.42
2019-04-03T21:15:14.589Z,14.87
2019-04-03T21:18:10.644Z,15.13
2019-04-03T21:21:01.586Z,17.52
2019-04-03T21:23:38.236Z,18.42
2019-04-03T21:26:27.726Z,20.32
2019-04-03T21:29:03.772Z,15.18
2019-04-03T21:31:52.972Z,15.15
2019-04-03T21:34:28.856Z,16.62
2019-04-03T21:37:19.224Z,18.98
2019-04-03T21:39:55.751Z,19.85
2019-04-03T21:42:44.100Z,15.53
2019-04-03T21:45:20.353Z,16.70
2019-04-03T21:48:09.585Z,20.92
2019-04-03T21:50:46.107Z,18.87
2019-04-03T21:53:35.444Z,16.52
2019-04-03T21:56:24.918Z,22.00
2019-04-03T21:59:00.995Z,16.75
2019-04-03T22:01:50.798Z,18.05
2019-04-03T22:04:27.062Z,18.73
2019-04-03T22:07:17.144Z,20.62
2019-04-03T22:09:53.107Z,20.30
